Time;durP1;ratioP1;P1;durP2;ratioP2;P2;SDS_P1;SDS_P2;PMS_P1;PMS_P2;Temp;Humidity;BMP_temperature;BMP_pressure;BME280_temperature;BME280_humidity;BME280_pressure;Samples;Min_cycle;Max_cycle;Signal;HPM_P1;HPM_P2
2023/03/28 00:00:31;;;;;;;4.00;1.60;;;1.30;99.90;;;;;;5035145;28;20296;-48
2023/03/28 00:02:56;;;;;;;4.80;1.20;;;1.30;99.90;;;;;;5035002;28;20803;-47
2023/03/28 00:05:23;;;;;;;4.00;1.50;;;1.20;99.90;;;;;;5034894;28;20203;-48
2023/03/28 00:07:52;;;;;;;6.37;2.00;;;1.20;99.90;;;;;;5035220;28;20182;-48
2023/03/28 00:10:18;;;;;;;5.00;1.40;;;1.20;99.90;;;;;;5034912;28;20967;-48
2023/03/28 00:12:44;;;;;;;5.70;1.30;;;1.20;99.90;;;;;;5034981;28;20465;-47
2023/03/28 00:15:10;;;;;;;7.83;1.43;;;1.10;99.90;;;;;;5034762;28;20416;-48
2023/03/28 00:17:36;;;;;;;5.40;1.23;;;1.10;99.90;;;;;;5035007;28;20218;-46
2023/03/28 00:20:03;;;;;;;5.40;1.50;;;1.10;99.90;;;;;;5034476;28;20510;-46
2023/03/28 00:22:30;;;;;;;5.93;1.33;;;1.10;99.90;;;;;;5035086;28;20194;-46
2023/03/28 00:24:57;;;;;;;3.73;1.40;;;1.10;1.00;;;;;;5034411;28;20427;-46
2023/03/28 00:27:24;;;;;;;5.80;1.20;;;1.00;1.00;;;;;;5034888;28;20423;-46
2023/03/28 00:29:50;;;;;;;3.00;1.30;;;1.00;1.00;;;;;;5034670;28;20503;-52
2023/03/28 00:32:16;;;;;;;6.97;1.43;;;1.00;1.00;;;;;;5034365;28;20917;-49
2023/03/28 00:34:41;;;;;;;3.00;1.53;;;1.00;1.00;;;;;;5034778;28;20178;-49
2023/03/28 00:37:09;;;;;;;7.20;1.70;;;1.00;1.00;;;;;;5034410;28;20286;-46
2023/03/28 00:39:35;;;;;;;5.57;1.47;;;1.00;1.00;;;;;;5034696;28;20219;-46
2023/03/28 00:42:02;;;;;;;6.40;1.43;;;1.00;1.00;;;;;;5034339;28;20464;-47
2023/03/28 00:44:52;;;;;;;3.47;1.40;;;1.00;1.00;;;;;;5033801;28;20478;-46
2023/03/28 00:47:26;;;;;;;11.47;1.60;;;1.00;1.00;;;;;;5034104;28;20427;-46
2023/03/28 00:49:56;;;;;;;4.87;1.33;;;0.90;99.90;;;;;;5034321;28;20435;-47
2023/03/28 00:52:25;;;;;;;2.67;1.20;;;0.90;99.90;;;;;;5034171;28;20482;-47
2023/03/28 00:54:52;;;;;;;5.70;1.20;;;0.90;99.90;;;;;;5033898;28;20418;-46
2023/03/28 00:57:18;;;;;;;4.00;1.40;;;0.80;99.90;;;;;;5034052;28;20415;-47
2023/03/28 00:59:44;;;;;;;2.03;1.17;;;0.70;99.90;;;;;;5034106;28;20458;-47
2023/03/28 01:02:11;;;;;;;2.40;1.00;;;0.80;99.90;;;;;;5033822;28;20427;-47
2023/03/28 01:04:48;;;;;;;8.10;1.60;;;0.70;99.90;;;;;;5034095;28;20905;-47
2023/03/28 01:07:15;;;;;;;7.00;1.37;;;0.60;99.90;;;;;;5034019;28;20497;-47
2023/03/28 01:09:41;;;;;;;6.90;1.47;;;0.60;99.90;;;;;;5033697;28;20914;-46
2023/03/28 01:12:08;;;;;;;5.60;1.37;;;0.60;99.90;;;;;;5033668;28;20778;-47
2023/03/28 01:14:35;;;;;;;5.37;1.50;;;0.60;99.90;;;;;;5033748;28;20418;-46
2023/03/28 01:17:01;;;;;;;5.60;1.53;;;0.50;99.90;;;;;;5033586;28;20484;-47
2023/03/28 01:19:57;;;;;;;3.37;1.23;;;0.50;99.90;;;;;;5033802;28;20415;-47
2023/03/28 01:22:53;;;;;;;4.73;1.40;;;0.40;99.90;;;;;;5033819;28;20198;-47
2023/03/28 01:25:43;;;;;;;7.10;1.30;;;0.40;99.90;;;;;;5033467;28;20497;-47
2023/03/28 01:28:35;;;;;;;4.40;1.10;;;0.30;99.90;;;;;;5033578;28;20886;-47
2023/03/28 01:31:09;;;;;;;6.13;1.67;;;0.20;99.90;;;;;;5033353;28;20402;-47
2023/03/28 01:34:03;;;;;;;3.83;1.37;;;0.20;1.00;;;;;;5033412;28;20421;-47
2023/03/28 01:36:44;;;;;;;4.83;1.30;;;0.20;1.00;;;;;;5033501;28;20433;-47
2023/03/28 01:39:22;;;;;;;4.70;1.73;;;0.10;1.00;;;;;;5033482;28;20419;-47
2023/03/28 01:41:59;;;;;;;2.13;1.00;;;0.10;1.00;;;;;;5033646;28;20418;-47
2023/03/28 01:44:55;;;;;;;2.97;1.27;;;0.00;1.00;;;;;;5033293;28;20984;-47
2023/03/28 01:47:36;;;;;;;7.47;1.70;;;0.10;1.00;;;;;;5033161;28;20922;-48
2023/03/28 01:50:22;;;;;;;5.53;1.30;;;0.00;1.00;;;;;;5033518;28;20746;-47
2023/03/28 01:53:06;;;;;;;5.87;1.20;;;0.00;1.00;;;;;;5033210;28;20431;-48
2023/03/28 01:55:47;;;;;;;8.70;1.30;;;0.00;1.00;;;;;;5033227;28;20407;-47
2023/03/28 01:58:17;;;;;;;3.80;1.20;;;-0.10;1.00;;;;;;5033639;28;20456;-47
2023/03/28 02:00:47;;;;;;;3.40;1.40;;;-0.10;1.00;;;;;;5033141;28;20458;-47
2023/03/28 02:03:21;;;;;;;2.00;1.10;;;-0.20;1.00;;;;;;5033142;28;20828;-48
2023/03/28 02:05:48;;;;;;;3.10;1.10;;;-0.20;1.00;;;;;;5036691;28;20418;-47
2023/03/28 02:08:17;;;;;;;3.30;1.30;;;-0.20;1.00;;;;;;5037401;28;20794;-49
2023/03/28 02:10:45;;;;;;;3.10;1.80;;;-0.20;1.00;;;;;;5037326;28;20479;-47
2023/03/28 02:13:15;;;;;;;2.63;1.70;;;-0.20;1.00;;;;;;5036186;28;20424;-48
2023/03/28 02:15:45;;;;;;;8.23;3.10;;;-0.20;1.00;;;;;;5036901;28;20413;-48
2023/03/28 02:18:19;;;;;;;4.63;1.60;;;-0.30;1.00;;;;;;5036811;28;20426;-48
2023/03/28 02:20:52;;;;;;;3.83;1.40;;;-0.30;1.00;;;;;;5036056;28;20460;-49
2023/03/28 02:23:26;;;;;;;1.00;0.80;;;-0.30;1.00;;;;;;5036567;28;20521;-48
2023/03/28 02:25:51;;;;;;;7.50;1.17;;;-0.30;1.00;;;;;;5037219;28;20462;-48
2023/03/28 02:28:18;;;;;;;3.13;1.00;;;-0.30;1.00;;;;;;5037013;28;20415;-48
2023/03/28 02:30:44;;;;;;;1.67;1.10;;;-0.30;1.00;;;;;;5036489;28;20191;-48
2023/03/28 02:33:36;;;;;;;2.27;1.00;;;-0.40;1.00;;;;;;5037266;28;20434;-48
2023/03/28 02:36:04;;;;;;;2.70;1.37;;;-0.50;1.00;;;;;;5033825;28;20461;-48
2023/03/28 02:38:49;;;;;;;8.30;1.27;;;-0.50;1.00;;;;;;5036566;28;20426;-48
2023/03/28 02:41:23;;;;;;;3.57;1.20;;;-0.50;1.00;;;;;;5036658;28;20949;-48
2023/03/28 02:43:57;;;;;;;5.53;1.00;;;-0.50;3.10;;;;;;5036912;28;20481;-48
2023/03/28 02:46:26;;;;;;;4.43;1.20;;;-0.50;55.40;;;;;;5036593;28;20897;-48
2023/03/28 02:48:57;;;;;;;2.10;1.03;;;-0.50;45.20;;;;;;5036570;28;20422;-48
2023/03/28 02:51:55;;;;;;;4.60;1.33;;;-0.50;13.00;;;;;;5036480;28;20473;-48
2023/03/28 02:54:44;;;;;;;1.97;1.40;;;-0.50;16.00;;;;;;5036540;28;20395;-48
2023/03/28 02:57:29;;;;;;;4.17;1.40;;;-0.40;1.00;;;;;;5036172;28;20788;-48
2023/03/28 03:00:00;;;;;;;1.43;1.20;;;-0.40;1.00;;;;;;5036736;28;20465;-48
2023/03/28 03:02:27;;;;;;;4.43;1.30;;;-0.40;1.00;;;;;;5036682;28;20770;-48
2023/03/28 03:04:56;;;;;;;3.83;1.50;;;-0.40;1.00;;;;;;5036528;28;20493;-47
2023/03/28 03:07:23;;;;;;;2.80;1.40;;;-0.40;1.00;;;;;;5036464;28;20433;-48
2023/03/28 03:09:52;;;;;;;1.93;1.50;;;-0.40;1.00;;;;;;5036416;28;20414;-48
2023/03/28 03:12:22;;;;;;;1.13;1.03;;;-0.40;1.00;;;;;;5036436;28;20424;-48
2023/03/28 03:14:49;;;;;;;4.63;1.63;;;-0.40;1.00;;;;;;5036057;28;20407;-49
2023/03/28 03:17:16;;;;;;;2.80;1.40;;;-0.50;1.00;;;;;;5036090;28;20452;-48
2023/03/28 03:19:42;;;;;;;2.53;1.27;;;-0.50;1.00;;;;;;5035892;28;20461;-48
2023/03/28 03:22:08;;;;;;;1.40;1.30;;;-0.50;1.00;;;;;;5035618;28;20472;-48
2023/03/28 03:24:35;;;;;;;1.63;1.40;;;-0.50;1.00;;;;;;5035513;28;20184;-48
2023/03/28 03:27:01;;;;;;;3.60;2.10;;;-0.50;4.20;;;;;;5034441;28;20418;-48
2023/03/28 03:29:26;;;;;;;3.40;1.40;;;-0.50;1.00;;;;;;5035756;28;20430;-48
2023/03/28 03:31:52;;;;;;;2.50;1.30;;;-0.50;1.90;;;;;;5035818;28;20425;-48
2023/03/28 03:34:18;;;;;;;2.90;1.33;;;-0.50;25.10;;;;;;5035714;28;20178;-48
2023/03/28 03:36:43;;;;;;;3.50;1.63;;;-0.50;24.40;;;;;;5035962;28;20211;-48
2023/03/28 03:39:09;;;;;;;5.20;1.30;;;-0.40;35.50;;;;;;5035926;28;20270;-48
2023/03/28 03:41:35;;;;;;;6.13;1.40;;;-0.40;28.90;;;;;;5036042;28;20273;-47
2023/03/28 03:44:01;;;;;;;2.83;1.33;;;-0.40;1.00;;;;;;5035463;28;20614;-48
2023/03/28 03:46:26;;;;;;;5.57;1.50;;;-0.40;1.00;;;;;;5035722;28;20189;-48
2023/03/28 03:48:52;;;;;;;6.80;1.57;;;-0.40;1.00;;;;;;5035357;28;20513;-48
2023/03/28 03:51:18;;;;;;;2.53;1.60;;;-0.50;1.00;;;;;;5035186;28;20195;-48
2023/03/28 03:53:43;;;;;;;2.53;1.57;;;-0.50;1.00;;;;;;5035733;28;20183;-48
2023/03/28 03:56:09;;;;;;;2.47;1.60;;;-0.50;1.00;;;;;;5035239;28;20511;-48
2023/03/28 03:58:35;;;;;;;3.77;1.50;;;-0.50;1.00;;;;;;5035663;28;20180;-48
2023/03/28 04:01:00;;;;;;;3.70;1.63;;;-0.50;1.00;;;;;;5035584;28;20235;-48
2023/03/28 04:03:26;;;;;;;5.47;1.80;;;-0.60;1.00;;;;;;5035527;28;20270;-48
2023/03/28 04:05:53;;;;;;;5.13;1.70;;;-0.50;69.70;;;;;;5035503;28;20234;-48
2023/03/28 04:08:20;;;;;;;1.80;1.57;;;-0.50;99.90;;;;;;5035342;28;20276;-48
2023/03/28 04:10:46;;;;;;;2.00;1.57;;;-0.50;99.90;;;;;;5034976;28;20430;-48
2023/03/28 04:13:12;;;;;;;2.40;1.90;;;-0.50;99.90;;;;;;5034762;28;20967;-48
2023/03/28 04:15:37;;;;;;;3.70;1.90;;;-0.50;99.90;;;;;;5034948;28;20422;-48
2023/03/28 04:18:04;;;;;;;5.53;1.70;;;-0.50;99.90;;;;;;5035173;28;20230;-48
2023/03/28 04:20:30;;;;;;;4.30;2.10;;;-0.50;99.90;;;;;;5034661;28;20219;-48
2023/03/28 04:22:57;;;;;;;4.30;2.03;;;-0.50;99.90;;;;;;5034990;28;20406;-48
2023/03/28 04:25:23;;;;;;;4.13;1.80;;;-0.50;1.00;;;;;;5034493;28;20457;-48
2023/03/28 04:27:53;;;;;;;3.60;1.93;;;-0.50;1.00;;;;;;5034138;28;20406;-48
2023/03/28 04:30:20;;;;;;;12.90;1.83;;;-0.50;1.00;;;;;;5034673;28;20464;-48
2023/03/28 04:32:49;;;;;;;3.20;2.27;;;-0.40;1.00;;;;;;5034740;28;20833;-48
2023/03/28 04:35:15;;;;;;;4.30;2.27;;;-0.40;68.20;;;;;;5034837;28;20423;-48
2023/03/28 04:37:42;;;;;;;5.43;2.07;;;-0.30;99.90;;;;;;5034538;28;20838;-48
2023/03/28 04:40:11;;;;;;;5.93;1.90;;;-0.20;52.40;;;;;;5034419;28;20462;-48
2023/03/28 04:42:40;;;;;;;5.93;2.63;;;-0.30;1.00;;;;;;5034485;28;20426;-48
2023/03/28 04:45:07;;;;;;;3.37;1.73;;;-0.30;1.00;;;;;;5033871;28;20470;-49
2023/03/28 04:47:33;;;;;;;3.70;2.13;;;-0.30;28.20;;;;;;5034519;28;20422;-48
2023/03/28 04:49:58;;;;;;;3.80;2.73;;;-0.30;99.90;;;;;;5034550;28;20718;-48
2023/03/28 04:52:24;;;;;;;10.17;2.90;;;-0.30;99.90;;;;;;5034415;28;20191;-48
2023/03/28 04:54:50;;;;;;;6.27;3.40;;;-0.30;1.00;;;;;;5034387;28;20281;-48
2023/03/28 04:57:16;;;;;;;9.33;3.00;;;-0.20;99.90;;;;;;5034239;28;20186;-48
2023/03/28 04:59:42;;;;;;;4.50;3.07;;;-0.20;99.90;;;;;;5034384;28;20422;-48
2023/03/28 05:02:09;;;;;;;4.70;3.00;;;-0.10;2.30;;;;;;5034282;28;20429;-48
2023/03/28 05:04:34;;;;;;;7.50;3.17;;;0.00;1.00;;;;;;5034077;28;20525;-48
2023/03/28 05:07:01;;;;;;;7.37;3.00;;;0.00;1.00;;;;;;5034324;28;20932;-48
2023/03/28 05:09:27;;;;;;;5.50;2.43;;;0.00;1.00;;;;;;5033924;28;20508;-48
2023/03/28 05:11:52;;;;;;;10.80;3.20;;;-0.10;1.00;;;;;;5033943;28;20406;-48
2023/03/28 05:14:18;;;;;;;7.73;4.30;;;-0.10;99.90;;;;;;5034011;28;20916;-48
2023/03/28 05:16:44;;;;;;;9.70;3.33;;;-0.10;99.90;;;;;;5034047;28;20190;-48
2023/03/28 05:19:09;;;;;;;7.77;2.97;;;-0.20;1.00;;;;;;5033978;28;20184;-48
2023/03/28 05:21:35;;;;;;;7.13;2.60;;;-0.20;1.00;;;;;;5033522;28;20242;-49
2023/03/28 05:24:01;;;;;;;5.80;2.70;;;-0.20;99.90;;;;;;5034045;28;20233;-48
2023/03/28 05:26:27;;;;;;;6.80;2.50;;;-0.20;1.00;;;;;;5033819;28;20313;-49
2023/03/28 05:28:53;;;;;;;10.13;2.60;;;-0.10;99.90;;;;;;5033808;28;20240;-48
2023/03/28 05:31:19;;;;;;;8.93;2.20;;;-0.10;1.00;;;;;;5033586;28;20425;-48
2023/03/28 05:33:44;;;;;;;12.37;2.83;;;-0.10;69.10;;;;;;5033699;28;20187;-49
2023/03/28 05:36:11;;;;;;;4.53;1.70;;;-0.10;16.40;;;;;;5033630;28;20184;-48
2023/03/28 05:38:37;;;;;;;6.70;1.60;;;0.10;99.90;;;;;;5033870;28;20328;-48
2023/03/28 05:41:03;;;;;;;3.70;2.27;;;0.10;1.00;;;;;;5033408;28;20553;-48
2023/03/28 05:43:29;;;;;;;7.30;2.30;;;0.30;76.70;;;;;;5033640;28;20206;-49
2023/03/28 05:45:54;;;;;;;13.00;2.57;;;0.30;1.00;;;;;;5033473;28;20230;-48
2023/03/28 05:48:20;;;;;;;8.13;2.60;;;0.40;1.00;;;;;;5033406;28;20454;-48
2023/03/28 05:50:49;;;;;;;10.20;2.77;;;0.40;99.90;;;;;;5033763;28;20244;-48
2023/03/28 05:53:15;;;;;;;10.40;2.73;;;0.50;25.70;;;;;;5033701;28;20278;-48
2023/03/28 05:55:41;;;;;;;10.50;2.80;;;0.50;99.90;;;;;;5033342;28;20501;-48
2023/03/28 05:58:07;;;;;;;11.10;2.77;;;0.70;1.00;;;;;;5033162;28;20195;-48
2023/03/28 06:00:33;;;;;;;9.67;2.93;;;0.70;1.00;;;;;;5033037;28;20480;-48
2023/03/28 06:02:59;;;;;;;13.00;2.57;;;0.90;99.90;;;;;;5033086;28;20207;-48
2023/03/28 06:05:26;;;;;;;15.87;3.27;;;1.00;73.60;;;;;;5033484;28;20520;-48
2023/03/28 06:07:51;;;;;;;9.60;3.13;;;1.10;1.00;;;;;;5033144;28;20484;-48
2023/03/28 06:10:17;;;;;;;8.57;3.13;;;1.30;1.00;;;;;;5033179;28;20418;-49
2023/03/28 06:12:43;;;;;;;17.70;3.10;;;1.40;99.90;;;;;;5033368;28;20180;-48
2023/03/28 06:15:10;;;;;;;14.53;3.80;;;1.50;57.30;;;;;;5033519;28;20175;-48
2023/03/28 06:17:36;;;;;;;14.50;4.00;;;1.70;1.00;;;;;;5033284;28;20236;-48
2023/03/28 06:20:05;;;;;;;13.30;3.23;;;1.70;1.00;;;;;;5033510;28;20473;-49
2023/03/28 06:22:31;;;;;;;15.13;2.80;;;1.80;87.20;;;;;;5033725;28;20180;-49
2023/03/28 06:24:56;;;;;;;15.67;3.37;;;1.80;1.00;;;;;;5033191;28;20495;-48
2023/03/28 06:27:22;;;;;;;10.67;3.50;;;1.90;99.90;;;;;;5033000;28;20182;-48
2023/03/28 06:29:47;;;;;;;11.03;3.20;;;2.00;99.90;;;;;;5033365;28;20270;-48
2023/03/28 06:32:14;;;;;;;15.13;3.70;;;2.20;99.90;;;;;;5033436;28;20184;-49
2023/03/28 06:34:39;;;;;;;8.23;3.27;;;2.30;99.90;;;;;;5033296;28;20301;-48
2023/03/28 06:37:05;;;;;;;8.87;2.93;;;2.50;1.00;;;;;;5032423;28;20515;-48
2023/03/28 06:39:31;;;;;;;9.37;3.10;;;2.70;1.00;;;;;;5032619;28;20184;-48
2023/03/28 06:41:57;;;;;;;11.93;3.53;;;2.90;81.20;;;;;;5032751;28;20187;-48
2023/03/28 06:44:22;;;;;;;9.23;2.97;;;3.20;99.90;;;;;;5032547;28;20436;-50
2023/03/28 06:46:48;;;;;;;9.97;2.43;;;3.50;1.00;;;;;;5032320;28;20508;-48
2023/03/28 06:49:14;;;;;;;5.33;2.00;;;3.60;99.90;;;;;;5032748;28;20272;-48
2023/03/28 06:51:39;;;;;;;8.13;2.40;;;3.70;99.90;;;;;;5035465;28;20183;-48
2023/03/28 06:54:05;;;;;;;10.43;2.27;;;3.90;99.90;;;;;;5036133;28;20346;-48
2023/03/28 06:56:30;;;;;;;16.17;2.33;;;4.20;99.90;;;;;;5036256;28;20183;-48
2023/03/28 06:58:56;;;;;;;11.43;3.10;;;4.40;94.80;;;;;;5035812;28;20565;-48
2023/03/28 07:01:22;;;;;;;12.03;2.10;;;4.60;46.60;;;;;;5035886;28;20214;-48
2023/03/28 07:03:47;;;;;;;7.77;2.30;;;4.90;9.20;;;;;;5035770;28;20210;-47
2023/03/28 07:06:13;;;;;;;6.93;2.20;;;5.10;1.00;;;;;;5035628;28;20240;-47
2023/03/28 07:08:38;;;;;;;7.20;2.10;;;5.10;1.00;;;;;;5035506;28;20236;-47
2023/03/28 07:11:04;;;;;;;10.03;2.60;;;5.40;1.00;;;;;;5035840;28;20270;-47
2023/03/28 07:13:30;;;;;;;11.10;2.30;;;5.50;1.00;;;;;;5035660;28;20504;-48
2023/03/28 07:16:15;;;;;;;9.63;2.57;;;5.90;1.00;;;;;;5035398;28;20429;-48
2023/03/28 07:18:41;;;;;;;9.00;2.30;;;6.30;1.00;;;;;;5035901;28;20182;-48
2023/03/28 07:21:09;;;;;;;10.60;2.00;;;6.60;1.00;;;;;;5035654;28;20499;-47
2023/03/28 07:23:35;;;;;;;6.03;1.60;;;7.00;1.00;;;;;;5035635;28;20470;-47
2023/03/28 07:26:01;;;;;;;5.70;1.93;;;7.40;1.00;;;;;;5035479;28;20746;-48
2023/03/28 07:28:26;;;;;;;8.23;2.20;;;7.50;1.00;;;;;;5035344;28;20336;-48
2023/03/28 07:30:53;;;;;;;10.13;1.70;;;7.80;1.00;;;;;;5035485;28;20186;-48
2023/03/28 07:33:19;;;;;;;8.60;2.10;;;8.20;1.00;;;;;;5035310;28;20173;-48
2023/03/28 07:35:45;;;;;;;11.37;2.23;;;8.40;1.00;;;;;;5035487;28;20939;-48
2023/03/28 07:38:10;;;;;;;8.33;1.70;;;8.50;1.00;;;;;;5035037;28;20463;-48
2023/03/28 07:40:36;;;;;;;10.50;2.07;;;8.60;1.00;;;;;;5035224;28;20229;-48
2023/03/28 07:43:02;;;;;;;10.47;1.97;;;8.70;1.00;;;;;;5035185;28;20607;-48
2023/03/28 07:45:28;;;;;;;7.70;2.20;;;9.10;1.00;;;;;;5034909;28;20376;-47
2023/03/28 07:47:53;;;;;;;5.90;1.43;;;9.00;1.00;;;;;;5035243;28;20511;-48
2023/03/28 07:50:19;;;;;;;6.23;2.07;;;8.90;1.00;;;;;;5034783;28;20532;-48
2023/03/28 07:52:48;;;;;;;14.03;2.40;;;8.90;1.00;;;;;;5027751;28;20405;-51
2023/03/28 07:55:13;;;;;;;8.45;1.90;;;8.90;1.00;;;;;;5031720;28;20685;-49
2023/03/28 07:57:40;;;;;;;12.53;2.47;;;9.10;1.00;;;;;;5035155;28;20186;-50
2023/03/28 08:00:11;;;;;;;16.37;2.20;;;9.60;1.00;;;;;;5034871;28;20222;-49
2023/03/28 08:02:39;;;;;;;5.30;2.03;;;9.80;1.00;;;;;;5033684;28;20417;-50
2023/03/28 08:05:05;;;;;;;6.27;1.60;;;9.80;1.00;;;;;;5034808;28;20411;-50
2023/03/28 08:07:32;;;;;;;4.70;1.47;;;9.90;1.00;;;;;;5034555;28;20428;-50
2023/03/28 08:09:58;;;;;;;7.87;2.10;;;10.20;1.00;;;;;;5034994;28;20189;-50
2023/03/28 08:12:24;;;;;;;9.33;1.80;;;10.50;1.00;;;;;;5034715;28;20793;-51
2023/03/28 08:14:49;;;;;;;4.93;1.50;;;10.50;1.00;;;;;;5034481;28;20190;-49
2023/03/28 08:17:15;;;;;;;4.53;1.50;;;10.50;1.00;;;;;;5034754;28;20190;-51
2023/03/28 08:19:41;;;;;;;10.10;2.10;;;10.60;1.00;;;;;;5034264;28;20177;-52
2023/03/28 08:22:09;;;;;;;5.70;1.90;;;10.50;1.00;;;;;;5034391;28;20182;-51
2023/03/28 08:24:35;;;;;;;8.17;1.70;;;10.50;1.00;;;;;;5034747;28;20236;-52
2023/03/28 08:27:00;;;;;;;10.07;2.00;;;10.60;1.00;;;;;;5034313;28;20421;-51
2023/03/28 08:29:26;;;;;;;4.20;1.47;;;10.90;1.00;;;;;;5034493;28;20188;-50
2023/03/28 08:31:52;;;;;;;9.77;1.77;;;11.20;1.00;;;;;;5034059;28;20186;-52
2023/03/28 08:34:17;;;;;;;4.60;1.50;;;11.40;1.00;;;;;;5033086;28;20609;-51
2023/03/28 08:36:43;;;;;;;5.50;1.90;;;11.70;1.00;;;;;;5034145;28;20186;-52
2023/03/28 08:39:08;;;;;;;7.43;1.57;;;12.00;1.00;;;;;;5033865;28;20178;-50
2023/03/28 08:41:46;;;;;;;7.30;1.93;;;12.20;1.00;;;;;;5034513;28;20218;-50
2023/03/28 08:44:27;;;;;;;7.80;2.00;;;12.40;1.00;;;;;;5033850;28;20336;-49
2023/03/28 08:47:10;;;;;;;8.80;2.40;;;12.10;1.00;;;;;;5034047;28;20424;-52
2023/03/28 08:49:46;;;;;;;9.50;1.77;;;11.60;1.00;;;;;;5033079;28;20416;-52
2023/03/28 08:52:15;;;;;;;11.43;2.03;;;10.70;1.00;;;;;;5033960;28;20261;-52
2023/03/28 08:55:01;;;;;;;7.67;1.70;;;10.20;1.00;;;;;;5033932;28;20508;-52
2023/03/28 08:57:30;;;;;;;3.70;1.93;;;9.30;1.00;;;;;;5033993;28;20409;-52
2023/03/28 09:00:23;;;;;;;7.50;3.10;;;8.80;1.00;;;;;;5033529;28;20501;-51
2023/03/28 09:02:49;;;;;;;6.13;1.67;;;8.40;1.00;;;;;;5033021;28;20840;-51
2023/03/28 09:05:19;;;;;;;5.17;1.50;;;8.30;1.00;;;;;;5034045;28;20428;-51
2023/03/28 09:07:54;;;;;;;7.90;1.97;;;8.20;1.00;;;;;;5033806;28;20475;-52
2023/03/28 09:10:39;;;;;;;9.20;2.60;;;8.30;1.00;;;;;;5033705;28;20400;-49
2023/03/28 09:13:17;;;;;;;10.50;1.80;;;8.60;1.00;;;;;;5033420;28;20491;-51
2023/03/28 09:15:50;;;;;;;4.17;2.03;;;9.50;1.00;;;;;;5033627;28;20428;-51
2023/03/28 09:18:53;;;;;;;8.67;2.07;;;10.20;1.00;;;;;;5033795;28;20408;-50
2023/03/28 09:21:25;;;;;;;7.60;1.90;;;10.30;1.00;;;;;;5025367;28;20524;-51
2023/03/28 09:24:09;;;;;;;8.13;1.90;;;9.90;1.00;;;;;;5033697;28;20411;-52
2023/03/28 09:26:43;;;;;;;9.67;2.10;;;9.50;1.00;;;;;;5033338;28;20907;-51
2023/03/28 09:29:23;;;;;;;4.90;1.60;;;10.00;1.00;;;;;;5033657;28;20401;-51
2023/03/28 09:31:55;;;;;;;8.87;1.33;;;10.40;1.00;;;;;;5033503;28;20432;-51
2023/03/28 09:34:26;;;;;;;14.30;1.90;;;10.30;1.00;;;;;;5033482;28;20398;-50
2023/03/28 09:36:54;;;;;;;6.93;1.83;;;9.70;1.00;;;;;;5033679;28;20416;-51
2023/03/28 09:39:34;;;;;;;5.80;1.30;;;9.10;1.00;;;;;;5033265;28;20558;-50
2023/03/28 09:42:05;;;;;;;4.97;1.03;;;8.50;1.00;;;;;;5033245;28;20459;-50
2023/03/28 09:44:39;;;;;;;3.90;1.10;;;8.50;1.00;;;;;;5032992;28;20481;-51
2023/03/28 09:47:10;;;;;;;9.13;1.33;;;8.70;1.00;;;;;;5033319;28;20408;-49
2023/03/28 09:49:35;;;;;;;9.10;1.57;;;9.00;1.00;;;;;;5033379;28;20411;-53
2023/03/28 09:52:11;;;;;;;9.30;1.50;;;9.20;1.00;;;;;;5033504;28;20751;-49
2023/03/28 09:54:40;;;;;;;7.17;1.53;;;9.30;1.00;;;;;;5033315;28;20185;-49
2023/03/28 09:57:05;;;;;;;7.93;1.10;;;9.40;1.00;;;;;;5033322;28;20479;-49
2023/03/28 09:59:33;;;;;;;6.00;1.63;;;9.50;1.00;;;;;;5033069;28;20409;-49
2023/03/28 10:02:01;;;;;;;10.73;1.50;;;9.70;1.00;;;;;;5033127;28;20253;-51
2023/03/28 10:04:27;;;;;;;9.47;1.37;;;10.10;1.00;;;;;;5033308;28;20448;-49
2023/03/28 10:06:54;;;;;;;4.73;1.07;;;10.10;1.00;;;;;;5033429;28;20453;-50
2023/03/28 10:09:24;;;;;;;5.23;1.10;;;10.10;1.00;;;;;;5033226;28;20197;-50
2023/03/28 10:11:59;;;;;;;8.00;1.40;;;10.00;1.00;;;;;;5033130;28;20428;-51
2023/03/28 10:14:45;;;;;;;6.07;1.40;;;9.80;1.00;;;;;;5032823;28;20896;-50
2023/03/28 10:17:30;;;;;;;5.33;1.53;;;9.70;1.00;;;;;;5032926;28;20491;-51
2023/03/28 10:20:03;;;;;;;6.67;1.40;;;9.30;1.00;;;;;;5032885;28;20529;-49
2023/03/28 10:22:39;;;;;;;10.10;1.87;;;8.80;1.00;;;;;;5033035;28;20419;-50
2023/03/28 10:25:07;;;;;;;6.73;1.37;;;8.60;1.00;;;;;;5033744;28;20439;-50
2023/03/28 10:27:35;;;;;;;4.83;1.53;;;8.50;1.00;;;;;;5036772;28;20424;-51
2023/03/28 10:30:19;;;;;;;7.63;1.67;;;8.40;1.00;;;;;;5036574;28;20944;-49
2023/03/28 10:33:05;;;;;;;8.87;1.90;;;8.00;1.00;;;;;;5036540;28;20444;-50
2023/03/28 10:35:32;;;;;;;12.37;1.90;;;7.80;1.00;;;;;;5036675;28;20405;-50
2023/03/28 10:38:02;;;;;;;8.30;1.40;;;7.90;1.00;;;;;;5036639;28;20475;-50
2023/03/28 10:40:30;;;;;;;7.40;1.40;;;8.00;1.00;;;;;;5036645;28;20494;-49
2023/03/28 10:42:57;;;;;;;4.20;1.20;;;8.30;1.00;;;;;;5036674;28;20504;-52
2023/03/28 10:45:36;;;;;;;2.60;0.90;;;8.70;1.00;;;;;;5036108;28;20525;-50
2023/03/28 10:48:09;;;;;;;6.20;1.50;;;9.10;1.00;;;;;;5036521;28;20832;-51
2023/03/28 10:50:47;;;;;;;6.43;1.30;;;9.40;1.00;;;;;;5036274;28;20440;-52
2023/03/28 10:53:43;;;;;;;2.07;1.00;;;9.40;1.00;;;;;;5036545;28;20413;-50
2023/03/28 10:56:29;;;;;;;3.63;1.00;;;9.10;1.00;;;;;;5036101;28;20408;-50
2023/03/28 10:59:09;;;;;;;6.27;1.27;;;9.00;1.00;;;;;;5036164;28;20409;-51
2023/03/28 11:01:43;;;;;;;8.13;1.40;;;9.00;1.00;;;;;;5036253;28;20458;-52
2023/03/28 11:04:09;;;;;;;7.20;1.33;;;9.20;1.00;;;;;;5036049;28;20459;-51
2023/03/28 11:07:06;;;;;;;5.60;1.53;;;9.20;1.00;;;;;;5035889;28;20418;-50
2023/03/28 11:09:58;;;;;;;8.77;1.30;;;9.10;1.00;;;;;;5036043;28;20500;-51
2023/03/28 11:12:57;;;;;;;5.37;1.37;;;9.30;1.00;;;;;;5035910;28;20405;-52
2023/03/28 11:15:38;;;;;;;7.83;2.03;;;9.60;1.00;;;;;;5035574;28;20436;-52
2023/03/28 11:18:31;;;;;;;2.60;1.20;;;9.90;1.00;;;;;;5035678;28;20855;-52
2023/03/28 11:21:18;;;;;;;7.33;1.40;;;10.20;1.00;;;;;;5035696;28;20477;-51
2023/03/28 11:24:03;;;;;;;9.93;1.50;;;10.10;1.00;;;;;;5035900;28;20420;-51
2023/03/28 11:26:45;;;;;;;3.90;1.20;;;10.30;1.00;;;;;;5035552;28;20429;-51
2023/03/28 11:29:24;;;;;;;4.00;1.30;;;10.70;1.00;;;;;;5035680;28;20417;-51
2023/03/28 11:31:59;;;;;;;7.07;1.60;;;11.40;1.00;;;;;;5035625;28;20409;-51
2023/03/28 11:34:34;;;;;;;6.67;1.47;;;12.30;1.00;;;;;;5035265;28;20417;-52
2023/03/28 11:37:14;;;;;;;11.03;1.80;;;12.60;1.00;;;;;;5035172;28;20413;-51
2023/03/28 11:40:00;;;;;;;6.33;1.73;;;13.10;1.00;;;;;;5035274;28;20409;-53
2023/03/28 11:42:41;;;;;;;2.87;1.37;;;13.10;1.00;;;;;;5034924;28;20437;-55
2023/03/28 11:45:17;;;;;;;6.10;1.40;;;13.80;1.00;;;;;;5035013;28;20477;-53
2023/03/28 11:48:04;;;;;;;4.10;1.53;;;13.60;1.00;;;;;;5035353;28;20412;-53
2023/03/28 11:50:51;;;;;;;5.13;1.40;;;13.70;1.00;;;;;;5035401;28;20436;-53
2023/03/28 11:53:33;;;;;;;3.47;1.33;;;14.30;1.00;;;;;;5035412;28;20420;-56
2023/03/28 11:56:10;;;;;;;5.00;1.80;;;14.70;1.00;;;;;;5035033;28;20417;-54
2023/03/28 11:58:40;;;;;;;5.33;1.50;;;14.80;1.00;;;;;;5034364;28;20796;-54
2023/03/28 12:01:13;;;;;;;4.17;1.53;;;13.50;1.00;;;;;;5034887;28;20464;-54
2023/03/28 12:03:57;;;;;;;6.97;1.57;;;12.10;1.00;;;;;;5034726;28;20908;-55
2023/03/28 12:07:01;;;;;;;8.60;1.70;;;11.00;1.00;;;;;;5035157;28;20404;-53
2023/03/28 12:09:46;;;;;;;9.30;1.63;;;10.20;1.00;;;;;;5031086;28;20441;-53
2023/03/28 12:12:17;;;;;;;3.93;1.53;;;9.50;1.00;;;;;;5034612;28;20947;-53
2023/03/28 12:14:57;;;;;;;5.40;1.50;;;9.10;1.00;;;;;;5034869;28;20421;-55
2023/03/28 12:17:38;;;;;;;12.30;2.20;;;8.80;1.00;;;;;;5034571;28;20432;-52
2023/03/28 12:20:10;;;;;;;8.33;1.70;;;8.60;1.00;;;;;;5034702;28;20461;-53
2023/03/28 12:22:51;;;;;;;6.20;1.67;;;8.30;1.00;;;;;;5035008;28;20810;-52
2023/03/28 12:25:28;;;;;;;9.70;2.83;;;8.00;1.00;;;;;;5034477;28;20439;-52
2023/03/28 12:28:09;;;;;;;8.27;1.87;;;7.80;1.00;;;;;;5034528;28;20447;-52
2023/03/28 12:31:05;;;;;;;4.10;2.00;;;7.70;1.00;;;;;;5034696;28;20411;-53
2023/03/28 12:33:39;;;;;;;5.90;1.60;;;7.60;1.00;;;;;;5034430;28;20762;-52
2023/03/28 12:36:09;;;;;;;5.33;1.83;;;7.40;1.00;;;;;;5034270;28;20453;-52
2023/03/28 12:38:56;;;;;;;5.23;1.60;;;7.30;1.00;;;;;;5034457;28;20417;-52
2023/03/28 12:41:30;;;;;;;4.97;1.73;;;7.30;1.00;;;;;;5034336;28;20464;-52
2023/03/28 12:44:09;;;;;;;9.30;1.70;;;7.30;1.00;;;;;;5034174;28;20483;-52
2023/03/28 12:46:44;;;;;;;3.37;1.70;;;7.30;1.00;;;;;;5034137;28;20908;-52
2023/03/28 12:49:17;;;;;;;8.00;2.00;;;7.20;1.00;;;;;;5033656;28;20416;-52
2023/03/28 12:51:50;;;;;;;9.13;1.50;;;7.10;1.00;;;;;;5034217;28;20557;-51
2023/03/28 12:54:15;;;;;;;8.40;1.47;;;6.90;1.00;;;;;;5033973;28;20401;-52
2023/03/28 12:57:01;;;;;;;7.57;1.83;;;6.70;1.00;;;;;;5033928;28;20779;-52
2023/03/28 12:59:42;;;;;;;6.40;1.73;;;6.50;1.00;;;;;;5034146;28;20261;-52
2023/03/28 13:02:32;;;;;;;5.60;2.20;;;6.40;1.00;;;;;;5034211;28;20417;-52
2023/03/28 13:05:30;;;;;;;9.63;2.17;;;6.30;1.00;;;;;;5034031;28;20413;-52
2023/03/28 13:08:05;;;;;;;8.70;2.40;;;6.20;1.00;;;;;;5033614;28;20447;-52
2023/03/28 13:11:11;;;;;;;8.23;2.33;;;6.30;1.00;;;;;;5033757;28;20444;-52
2023/03/28 13:14:01;;;;;;;5.73;2.10;;;6.40;1.00;;;;;;5033822;28;20435;-52
2023/03/28 13:16:45;;;;;;;11.87;2.70;;;6.50;1.00;;;;;;5033789;28;20467;-50
2023/03/28 13:19:13;;;;;;;9.63;2.30;;;6.70;1.00;;;;;;5033765;28;20416;-51
2023/03/28 13:21:55;;;;;;;11.93;1.93;;;6.80;1.00;;;;;;5032981;28;20457;-50